Time;durP1;ratioP1;P1;durP2;ratioP2;P2;SDS_P1;SDS_P2;PMS_P1;PMS_P2;Temp;Humidity;BMP_temperature;BMP_pressure;BME280_temperature;BME280_humidity;BME280_pressure;Samples;Min_cycle;Max_cycle;Signal;HPM_P1;HPM_P2
2022/01/17 00:02:24;;;;;;;25.58;3.30;;;6.50;99.90;;;;;;5049429;28;20052;-68
2022/01/17 00:04:50;;;;;;;17.25;3.33;;;6.40;99.90;;;;;;5050655;28;20071;-68
2022/01/17 00:07:16;;;;;;;14.30;2.60;;;6.40;99.90;;;;;;5066650;28;20140;-69
2022/01/17 00:09:42;;;;;;;15.82;2.80;;;6.40;99.90;;;;;;5069232;28;20409;-68
2022/01/17 00:12:08;;;;;;;17.63;3.13;;;6.40;99.90;;;;;;5063001;28;20044;-68
2022/01/17 00:14:39;;;;;;;18.35;3.97;;;6.40;99.90;;;;;;5055294;28;20048;-69
2022/01/17 00:17:24;;;;;;;15.60;2.85;;;6.40;99.90;;;;;;5053597;28;20136;-69
2022/01/17 00:19:54;;;;;;;16.33;3.00;;;6.50;99.90;;;;;;5064301;28;20118;-69
2022/01/17 00:22:21;;;;;;;16.58;2.90;;;7.60;99.90;;;;;;5064628;28;20103;-68
2022/01/17 00:24:48;;;;;;;19.13;3.92;;;6.40;99.90;;;;;;5054563;28;20032;-68
2022/01/17 00:27:14;;;;;;;14.38;2.88;;;6.50;99.90;;;;;;5066352;28;20040;-68
2022/01/17 00:29:40;;;;;;;15.20;3.20;;;6.40;99.90;;;;;;5055229;28;20428;-67
2022/01/17 00:32:06;;;;;;;14.63;2.97;;;6.40;99.90;;;;;;5046707;28;20132;-67
2022/01/17 00:34:32;;;;;;;17.17;3.72;;;6.40;99.90;;;;;;5061682;28;20041;-67
2022/01/17 00:36:58;;;;;;;16.27;3.90;;;6.40;99.90;;;;;;5055663;28;20440;-68
2022/01/17 00:39:24;;;;;;;18.13;3.90;;;6.40;99.90;;;;;;5055308;28;20501;-68
2022/01/17 00:41:50;;;;;;;20.02;3.30;;;6.40;99.90;;;;;;5066112;28;20373;-68
2022/01/17 00:44:21;;;;;;;18.70;3.30;;;6.40;99.90;;;;;;5051521;28;20037;-68
2022/01/17 00:46:47;;;;;;;16.35;3.00;;;6.40;99.90;;;;;;5056812;28;20491;-68
2022/01/17 00:49:13;;;;;;;19.13;2.80;;;6.50;99.90;;;;;;5066931;28;20041;-67
2022/01/17 00:51:39;;;;;;;14.85;3.15;;;6.50;99.90;;;;;;5068213;28;20045;-67
2022/01/17 00:54:04;;;;;;;24.75;3.90;;;6.40;99.90;;;;;;5064466;28;20047;-68
2022/01/17 00:56:30;;;;;;;24.38;3.90;;;6.40;99.90;;;;;;5058654;28;20049;-68
2022/01/17 00:58:56;;;;;;;20.58;3.55;;;6.30;99.90;;;;;;5049339;28;20045;-68
2022/01/17 01:01:21;;;;;;;19.35;2.67;;;6.30;99.90;;;;;;5057574;28;20477;-68
2022/01/17 01:03:47;;;;;;;15.98;2.83;;;6.20;99.90;;;;;;5052951;28;20532;-67
2022/01/17 01:06:13;;;;;;;14.90;2.90;;;6.20;99.90;;;;;;5048459;28;20105;-68
2022/01/17 01:08:38;;;;;;;14.45;2.50;;;6.10;99.90;;;;;;5069956;28;20035;-67
2022/01/17 01:11:04;;;;;;;21.98;3.47;;;6.10;99.90;;;;;;5052062;28;20115;-68
2022/01/17 01:13:31;;;;;;;14.98;3.10;;;6.10;99.90;;;;;;5047626;28;20049;-68
2022/01/17 01:16:10;;;;;;;21.23;3.17;;;6.20;99.90;;;;;;5063801;28;20052;-68
2022/01/17 01:18:49;;;;;;;17.98;2.97;;;6.10;99.90;;;;;;5060870;28;20047;-68
2022/01/17 01:29:28;;;;;;;16.95;3.10;;;6.20;99.90;;;;;;5047614;28;20389;-67
2022/01/17 01:32:00;;;;;;;17.27;3.50;;;6.20;99.90;;;;;;5048061;28;20056;-68
2022/01/17 01:34:33;;;;;;;16.67;3.13;;;6.20;99.90;;;;;;5066089;28;20068;-67
2022/01/17 01:36:59;;;;;;;17.70;2.72;;;6.20;99.90;;;;;;5065746;28;20091;-68
2022/01/17 01:39:25;;;;;;;14.32;2.70;;;6.20;99.90;;;;;;5067792;28;20084;-68
2022/01/17 01:41:51;;;;;;;24.17;3.35;;;6.30;99.90;;;;;;5051502;28;20041;-68
2022/01/17 01:44:19;;;;;;;18.42;2.78;;;6.20;99.90;;;;;;5069412;28;20425;-67
2022/01/17 01:46:46;;;;;;;21.98;3.70;;;6.20;99.90;;;;;;5060187;28;20044;-67
2022/01/17 01:49:13;;;;;;;20.10;3.33;;;6.20;99.90;;;;;;5071104;28;20400;-67
2022/01/17 01:51:39;;;;;;;18.58;2.63;;;6.10;99.90;;;;;;5057235;28;20052;-68
2022/01/17 01:54:06;;;;;;;15.20;2.83;;;6.20;99.90;;;;;;5051619;28;20049;-68
2022/01/17 01:56:34;;;;;;;17.58;3.38;;;6.10;99.90;;;;;;5066473;28;20071;-68
2022/01/17 01:59:00;;;;;;;16.60;2.97;;;6.10;99.90;;;;;;5054542;28;20037;-68
2022/01/17 02:01:25;;;;;;;11.45;2.88;;;6.10;99.90;;;;;;5056481;28;20056;-68
2022/01/17 02:03:51;;;;;;;18.27;3.40;;;6.10;99.90;;;;;;5065231;28;20469;-68
2022/01/17 02:06:17;;;;;;;17.75;3.20;;;6.00;99.90;;;;;;5050472;28;20116;-67
2022/01/17 02:08:43;;;;;;;17.63;3.47;;;6.00;99.90;;;;;;5064268;28;20501;-68
2022/01/17 02:11:10;;;;;;;19.35;3.05;;;6.00;99.90;;;;;;5069875;28;20055;-67
2022/01/17 02:13:38;;;;;;;14.10;3.28;;;6.00;99.90;;;;;;5056197;28;20053;-68
2022/01/17 02:16:09;;;;;;;15.45;2.65;;;5.90;99.90;;;;;;5067563;28;20056;-68
2022/01/17 02:18:34;;;;;;;21.35;3.10;;;6.00;99.90;;;;;;5051234;28;20053;-68
2022/01/17 02:23:42;;;;;;;14.98;3.25;;;5.90;99.90;;;;;;5070851;28;20408;-68
2022/01/17 02:26:08;;;;;;;18.58;3.05;;;5.90;99.90;;;;;;5068786;28;20047;-67
2022/01/17 02:28:35;;;;;;;15.73;2.92;;;5.90;99.90;;;;;;5052245;28;20037;-68
2022/01/17 02:31:03;;;;;;;15.73;3.10;;;5.90;99.90;;;;;;5036676;28;20440;-67
2022/01/17 02:33:29;;;;;;;21.40;2.95;;;5.80;99.90;;;;;;5069944;28;20127;-68
2022/01/17 02:35:55;;;;;;;17.30;3.10;;;5.70;99.90;;;;;;5070922;28;20131;-68
2022/01/17 02:38:20;;;;;;;15.07;2.88;;;5.80;99.90;;;;;;5061220;28;20041;-68
2022/01/17 02:40:46;;;;;;;18.10;2.60;;;5.80;99.90;;;;;;5063173;28;20045;-68
2022/01/17 02:43:13;;;;;;;20.35;3.67;;;5.90;99.90;;;;;;5050563;28;20473;-68
2022/01/17 02:48:18;;;;;;;22.23;3.47;;;6.00;99.90;;;;;;5071712;28;20053;-68
2022/01/17 02:50:44;;;;;;;15.55;3.20;;;6.00;99.90;;;;;;5070179;28;20048;-68
2022/01/17 02:53:10;;;;;;;16.15;2.90;;;6.00;99.90;;;;;;5069608;28;20063;-68
2022/01/17 02:55:37;;;;;;;18.05;2.80;;;6.00;99.90;;;;;;5063137;28;20497;-69
2022/01/17 02:58:03;;;;;;;17.70;3.22;;;6.10;99.90;;;;;;5057494;28;20048;-68
2022/01/17 03:00:28;;;;;;;14.85;2.60;;;6.10;99.90;;;;;;5068575;28;20079;-68
2022/01/17 03:02:54;;;;;;;15.13;2.65;;;6.10;99.90;;;;;;5069077;28;20495;-68
2022/01/17 03:05:20;;;;;;;16.90;2.90;;;6.10;99.90;;;;;;5065231;28;20185;-68
2022/01/17 03:07:48;;;;;;;13.02;2.63;;;6.10;99.90;;;;;;5048070;28;20095;-68
2022/01/17 03:12:51;;;;;;;18.08;3.65;;;6.10;99.90;;;;;;5060585;28;20056;-68
2022/01/17 03:15:17;;;;;;;21.30;3.38;;;6.40;99.90;;;;;;5048444;28;20105;-68
2022/01/17 03:17:42;;;;;;;18.15;2.53;;;6.20;99.90;;;;;;5050937;28;20052;-67
2022/01/17 03:20:09;;;;;;;17.38;2.85;;;6.20;99.90;;;;;;5052627;28;20037;-69
2022/01/17 03:22:35;;;;;;;18.70;3.63;;;6.30;99.90;;;;;;5069151;28;20070;-67
2022/01/17 03:25:01;;;;;;;20.95;3.13;;;6.30;99.90;;;;;;5068093;28;20127;-68
2022/01/17 03:27:26;;;;;;;21.15;3.22;;;6.20;99.90;;;;;;5069114;28;20540;-67
2022/01/17 03:29:52;;;;;;;18.38;2.88;;;6.20;99.90;;;;;;5068563;28;20102;-68
2022/01/17 03:32:18;;;;;;;15.85;3.15;;;6.20;99.90;;;;;;5070082;28;20037;-67
2022/01/17 03:34:43;;;;;;;17.45;2.53;;;6.20;99.90;;;;;;5068010;28;20127;-67
2022/01/17 03:37:09;;;;;;;21.92;2.85;;;6.30;99.90;;;;;;5068791;28;20507;-67
2022/01/17 03:39:34;;;;;;;16.00;3.53;;;6.30;99.90;;;;;;5069489;28;20395;-70
2022/01/17 03:42:00;;;;;;;16.05;3.13;;;6.30;99.90;;;;;;5053305;28;20037;-67
2022/01/17 03:44:26;;;;;;;21.58;3.30;;;6.30;99.90;;;;;;5053482;28;20044;-68
2022/01/17 03:46:51;;;;;;;16.60;2.97;;;6.30;99.90;;;;;;5069341;28;20033;-67
2022/01/17 03:49:17;;;;;;;14.05;3.20;;;6.30;99.90;;;;;;5067530;28;20056;-67
2022/01/17 03:51:43;;;;;;;15.88;2.40;;;7.30;99.90;;;;;;5069096;28;20037;-68
2022/01/17 03:54:08;;;;;;;15.77;3.35;;;6.50;99.90;;;;;;5071208;28;20114;-69
2022/01/17 03:56:34;;;;;;;15.85;2.58;;;6.40;99.90;;;;;;5069389;28;20094;-68
2022/01/17 03:58:59;;;;;;;18.90;3.03;;;6.30;99.90;;;;;;5051155;28;20056;-68
2022/01/17 04:01:25;;;;;;;15.15;2.92;;;6.40;99.90;;;;;;5050268;28;20040;-68
2022/01/17 04:03:51;;;;;;;17.15;3.30;;;6.40;99.90;;;;;;5065360;28;20090;-68
2022/01/17 04:06:17;;;;;;;13.63;2.90;;;6.40;99.90;;;;;;5069103;28;20040;-68
2022/01/17 04:08:43;;;;;;;15.45;3.50;;;6.30;99.90;;;;;;5047624;28;20111;-67
2022/01/17 04:11:09;;;;;;;14.90;3.85;;;6.30;99.90;;;;;;5050930;28;20488;-68
2022/01/17 04:13:35;;;;;;;14.98;2.45;;;6.20;99.90;;;;;;5067904;28;20119;-67
2022/01/17 04:16:02;;;;;;;15.90;2.53;;;6.20;99.90;;;;;;5061081;28;20044;-67
2022/01/17 04:18:29;;;;;;;21.58;4.50;;;7.00;99.90;;;;;;5055960;28;20053;-68
2022/01/17 04:20:56;;;;;;;19.73;3.15;;;6.20;99.90;;;;;;5066917;28;20041;-68
2022/01/17 04:23:22;;;;;;;18.52;3.08;;;6.30;99.90;;;;;;5068836;28;20060;-67
2022/01/17 04:25:48;;;;;;;11.40;2.60;;;6.30;99.90;;;;;;5067449;28;20055;-68
2022/01/17 04:28:14;;;;;;;16.33;3.15;;;6.30;99.90;;;;;;5068309;28;20120;-68
2022/01/17 04:30:42;;;;;;;27.30;3.45;;;6.40;99.90;;;;;;5067995;28;20075;-68
2022/01/17 04:33:08;;;;;;;17.20;3.42;;;6.40;99.90;;;;;;5065865;28;20083;-67
2022/01/17 04:35:35;;;;;;;11.45;2.88;;;6.40;99.90;;;;;;5066498;28;20087;-68
2022/01/17 04:38:04;;;;;;;12.23;2.65;;;6.50;99.90;;;;;;5050460;28;20442;-67
2022/01/17 04:40:35;;;;;;;14.43;3.13;;;6.50;99.90;;;;;;5051885;28;20087;-68
2022/01/17 04:43:21;;;;;;;20.38;3.65;;;6.60;99.90;;;;;;5068595;28;20056;-67
2022/01/17 04:45:48;;;;;;;15.18;3.00;;;6.60;99.90;;;;;;5067592;28;20148;-68
2022/01/17 04:48:14;;;;;;;17.63;2.90;;;6.60;99.90;;;;;;5044783;28;20060;-68
2022/01/17 04:50:39;;;;;;;16.00;2.80;;;6.60;99.90;;;;;;5042903;28;20489;-68
2022/01/17 04:53:07;;;;;;;18.38;3.40;;;6.70;99.90;;;;;;5057970;28;20044;-67
2022/01/17 04:55:33;;;;;;;12.95;2.83;;;6.60;99.90;;;;;;5061766;28;20065;-68
2022/01/17 04:57:59;;;;;;;22.42;3.67;;;6.60;99.90;;;;;;5054998;28;20041;-67
2022/01/17 05:00:27;;;;;;;18.65;3.25;;;6.60;99.90;;;;;;5032616;28;20045;-68
2022/01/17 05:02:53;;;;;;;18.02;3.13;;;6.70;99.90;;;;;;5068940;28;20377;-67
2022/01/17 05:05:20;;;;;;;19.38;3.78;;;6.70;99.90;;;;;;5056357;28;20037;-68
2022/01/17 05:07:46;;;;;;;16.35;3.20;;;6.70;99.90;;;;;;5047885;28;20098;-67
2022/01/17 05:10:15;;;;;;;15.63;2.90;;;6.70;99.90;;;;;;5048501;28;20476;-67
2022/01/17 05:12:42;;;;;;;19.08;3.28;;;6.70;99.90;;;;;;5060194;28;20120;-67
2022/01/17 05:15:20;;;;;;;16.92;3.38;;;6.70;99.90;;;;;;5066672;28;20124;-67
2022/01/17 05:20:23;;;;;;;15.60;3.22;;;6.80;99.90;;;;;;5046126;28;20037;-68
2022/01/17 05:22:49;;;;;;;22.42;3.50;;;6.80;99.90;;;;;;5071222;28;20507;-68
2022/01/17 05:25:15;;;;;;;24.40;3.85;;;6.80;99.90;;;;;;5064530;28;20043;-70
2022/01/17 05:27:40;;;;;;;15.70;3.38;;;6.80;99.90;;;;;;5070249;28;20341;-70
2022/01/17 05:30:13;;;;;;;17.85;4.03;;;7.20;99.90;;;;;;5071098;28;20068;-67
2022/01/17 05:32:39;;;;;;;22.98;3.83;;;6.90;99.90;;;;;;5055070;28;20049;-67
2022/01/17 05:35:05;;;;;;;20.42;4.03;;;6.90;99.90;;;;;;5053073;28;20041;-67
2022/01/17 05:37:31;;;;;;;14.75;3.28;;;6.90;99.90;;;;;;5059446;28;20041;-67
2022/01/17 05:39:56;;;;;;;16.35;3.63;;;7.00;99.90;;;;;;5063098;28;20040;-70
2022/01/17 05:42:24;;;;;;;22.30;3.70;;;7.00;99.90;;;;;;5066720;28;20484;-67
2022/01/17 05:44:50;;;;;;;18.70;3.28;;;7.00;99.90;;;;;;5071189;28;20040;-70
2022/01/17 05:47:16;;;;;;;16.23;2.95;;;7.00;99.90;;;;;;5070251;28;20088;-70
2022/01/17 05:49:43;;;;;;;25.20;3.88;;;7.00;99.90;;;;;;5070245;28;20376;-67
2022/01/17 05:52:09;;;;;;;19.20;3.65;;;7.00;99.90;;;;;;5056502;28;20091;-69
2022/01/17 05:54:35;;;;;;;15.95;3.78;;;6.90;99.90;;;;;;5052781;28;20076;-70
2022/01/17 05:57:01;;;;;;;21.55;4.07;;;6.90;99.90;;;;;;5084285;28;20045;-67
2022/01/17 05:59:27;;;;;;;23.73;3.90;;;6.90;99.90;;;;;;5053043;28;20037;-68
2022/01/17 06:01:53;;;;;;;19.50;4.10;;;6.90;99.90;;;;;;5069421;28;20424;-67
2022/01/17 06:04:19;;;;;;;21.63;3.80;;;7.00;99.90;;;;;;5056910;28;20064;-68
2022/01/17 06:06:45;;;;;;;19.58;4.60;;;7.00;99.90;;;;;;5069961;28;20499;-67
2022/01/17 06:09:10;;;;;;;21.10;3.88;;;6.90;99.90;;;;;;5054853;28;20080;-67
2022/01/17 06:11:36;;;;;;;19.17;3.83;;;6.90;99.90;;;;;;5060478;28;20474;-68
2022/01/17 06:14:03;;;;;;;23.58;3.60;;;6.90;99.90;;;;;;5068643;28;20373;-68
2022/01/17 06:16:30;;;;;;;25.73;4.70;;;6.90;99.90;;;;;;5060465;28;20051;-68
2022/01/17 06:18:56;;;;;;;21.35;4.68;;;6.90;99.90;;;;;;5045708;28;20053;-67
2022/01/17 06:21:21;;;;;;;19.92;4.47;;;6.90;99.90;;;;;;5051716;28;20037;-68
2022/01/17 06:23:47;;;;;;;20.45;4.25;;;6.90;99.90;;;;;;5050224;28;20114;-70
2022/01/17 06:26:13;;;;;;;21.30;4.07;;;7.00;99.90;;;;;;5060951;28;20049;-67
2022/01/17 06:28:39;;;;;;;27.48;4.80;;;6.90;99.90;;;;;;5066533;28;20433;-68
2022/01/17 06:31:04;;;;;;;20.77;3.97;;;6.90;99.90;;;;;;5069477;28;20434;-68
2022/01/17 06:33:30;;;;;;;20.38;4.32;;;6.90;99.90;;;;;;5056401;28;20429;-68
2022/01/17 06:35:56;;;;;;;18.55;3.40;;;6.90;99.90;;;;;;5056413;28;20139;-68
2022/01/17 06:38:21;;;;;;;28.17;4.70;;;7.00;99.90;;;;;;5053538;28;20057;-67
2022/01/17 06:40:47;;;;;;;16.85;3.63;;;7.00;99.90;;;;;;5055290;28;20036;-68
2022/01/17 06:43:13;;;;;;;29.13;4.90;;;7.00;99.90;;;;;;5069782;28;20090;-68
2022/01/17 06:45:39;;;;;;;26.27;5.00;;;7.00;99.90;;;;;;5068284;28;20099;-69
2022/01/17 06:48:06;;;;;;;27.38;4.75;;;7.00;99.90;;;;;;5050384;28;20118;-69
2022/01/17 06:50:32;;;;;;;25.45;4.38;;;7.00;99.90;;;;;;5057742;28;20110;-69
2022/01/17 06:52:58;;;;;;;19.48;4.45;;;6.90;99.90;;;;;;5069615;28;20111;-69
2022/01/17 06:55:24;;;;;;;23.48;4.20;;;6.90;99.90;;;;;;5070076;28;20540;-70
2022/01/17 06:57:50;;;;;;;22.25;4.13;;;6.90;99.90;;;;;;5045546;28;20469;-70
2022/01/17 07:00:16;;;;;;;22.08;4.30;;;6.90;99.90;;;;;;5056600;28;20053;-69
2022/01/17 07:02:42;;;;;;;33.10;4.65;;;6.50;99.90;;;;;;5049235;28;20294;-70
2022/01/17 07:05:08;;;;;;;22.40;4.15;;;7.00;99.90;;;;;;5050963;28;20070;-70
2022/01/17 07:07:34;;;;;;;20.48;3.97;;;7.00;99.90;;;;;;5049983;28;20056;-70
2022/01/17 07:09:59;;;;;;;25.83;4.80;;;7.00;99.90;;;;;;5066806;28;20040;-70
2022/01/17 07:12:25;;;;;;;34.83;5.72;;;7.00;99.90;;;;;;5045845;28;20524;-70
2022/01/17 07:14:50;;;;;;;28.48;4.43;;;6.90;99.90;;;;;;5084285;28;20373;-70
2022/01/17 07:17:16;;;;;;;31.42;4.88;;;6.90;99.90;;;;;;5060988;28;20073;-70
2022/01/17 07:19:42;;;;;;;35.03;5.38;;;7.00;99.90;;;;;;5049459;28;20128;-70
2022/01/17 07:22:08;;;;;;;27.25;4.97;;;7.00;99.90;;;;;;5066370;28;20508;-70
2022/01/17 07:24:36;;;;;;;25.75;4.93;;;7.80;99.90;;;;;;5085055;28;20048;-69
2022/01/17 07:27:02;;;;;;;24.20;4.20;;;7.00;99.90;;;;;;5067412;28;20446;-70
2022/01/17 07:29:28;;;;;;;28.65;5.13;;;7.00;99.90;;;;;;5053438;28;20051;-69
2022/01/17 07:31:54;;;;;;;29.08;4.57;;;7.00;99.90;;;;;;5067796;28;20404;-68
2022/01/17 07:34:20;;;;;;;32.83;4.85;;;7.10;99.90;;;;;;5066060;28;20121;-71
2022/01/17 07:36:46;;;;;;;34.70;4.75;;;7.10;99.90;;;;;;5066654;28;20055;-68
2022/01/17 07:39:11;;;;;;;30.50;4.75;;;7.10;99.90;;;;;;5066747;28;20392;-68
2022/01/17 07:41:37;;;;;;;32.65;4.97;;;7.10;99.90;;;;;;5067089;28;20066;-68
2022/01/17 07:44:04;;;;;;;28.98;4.30;;;7.10;99.90;;;;;;5054395;28;20365;-68
2022/01/17 07:46:36;;;;;;;26.35;4.63;;;7.10;99.90;;;;;;5052401;28;20069;-68
2022/01/17 07:49:16;;;;;;;25.95;4.97;;;7.20;99.90;;;;;;5055699;28;20536;-67
2022/01/17 07:51:43;;;;;;;23.27;4.13;;;7.20;99.90;;;;;;5067390;28;20040;-67
2022/01/17 07:54:11;;;;;;;25.65;4.45;;;7.20;99.90;;;;;;5068149;28;20370;-66
2022/01/17 07:56:40;;;;;;;33.55;5.00;;;7.30;99.90;;;;;;5052325;28;20409;-66
2022/01/17 07:59:07;;;;;;;30.27;5.00;;;7.30;99.90;;;;;;5056950;28;20048;-66
2022/01/17 08:01:33;;;;;;;29.15;5.57;;;7.30;99.90;;;;;;5069700;28;20485;-66
2022/01/17 08:03:58;;;;;;;24.35;4.85;;;7.30;99.90;;;;;;5069964;28;20410;-66
2022/01/17 08:06:24;;;;;;;28.35;4.88;;;7.40;99.90;;;;;;5066421;28;20068;-67
2022/01/17 08:08:50;;;;;;;29.40;4.60;;;7.50;99.90;;;;;;5068017;28;20044;-66
2022/01/17 08:11:16;;;;;;;23.13;4.55;;;7.50;99.90;;;;;;5062228;28;20037;-66
2022/01/17 08:13:41;;;;;;;27.33;4.57;;;8.00;99.90;;;;;;5051558;28;20139;-67
2022/01/17 08:16:07;;;;;;;30.92;5.00;;;7.60;99.90;;;;;;5048433;28;20063;-67
2022/01/17 08:18:33;;;;;;;35.03;5.13;;;7.60;99.90;;;;;;5052371;28;20032;-66
2022/01/17 08:20:59;;;;;;;31.67;6.18;;;7.60;99.90;;;;;;5059291;28;20050;-67
2022/01/17 08:23:25;;;;;;;33.30;4.75;;;7.70;99.90;;;;;;5047331;28;20124;-67
2022/01/17 08:25:51;;;;;;;28.17;5.07;;;7.70;99.90;;;;;;5046559;28;20056;-66
2022/01/17 08:28:16;;;;;;;32.67;5.28;;;7.70;99.90;;;;;;5048112;28;20193;-66
2022/01/17 08:30:42;;;;;;;39.22;5.43;;;7.80;99.90;;;;;;5064048;28;20524;-66
2022/01/17 08:33:08;;;;;;;30.23;5.13;;;7.80;99.90;;;;;;5067774;28;20051;-66
2022/01/17 08:35:34;;;;;;;37.38;5.68;;;7.90;99.90;;;;;;5061423;28;20049;-66
2022/01/17 08:37:59;;;;;;;32.30;5.05;;;7.90;99.90;;;;;;5028267;28;20056;-66
2022/01/17 08:40:25;;;;;;;27.95;4.88;;;7.90;99.90;;;;;;5046203;28;20059;-66
2022/01/17 08:42:51;;;;;;;31.83;5.55;;;7.90;99.90;;;;;;5066368;28;20128;-66
2022/01/17 08:45:21;;;;;;;36.58;5.82;;;7.90;99.90;;;;;;5069367;28;20131;-66
2022/01/17 08:47:49;;;;;;;41.35;5.93;;;8.00;99.90;;;;;;5065542;28;20063;-66
2022/01/17 08:50:16;;;;;;;32.33;5.50;;;8.00;99.90;;;;;;5064119;28;20231;-66
2022/01/17 08:52:45;;;;;;;38.38;5.72;;;8.10;99.90;;;;;;5064037;28;20493;-67
2022/01/17 08:55:11;;;;;;;33.08;5.68;;;8.10;99.90;;;;;;5082641;28;20116;-67
2022/01/17 08:57:36;;;;;;;29.70;5.03;;;8.10;99.90;;;;;;5047462;28;20048;-67
2022/01/17 09:00:06;;;;;;;35.35;5.22;;;8.20;99.90;;;;;;5052194;28;20501;-68
2022/01/17 09:02:31;;;;;;;33.55;5.80;;;8.20;99.90;;;;;;5050794;28;20131;-67
2022/01/17 09:04:57;;;;;;;35.95;6.07;;;8.30;99.90;;;;;;5045465;28;20123;-67
2022/01/17 09:07:23;;;;;;;34.88;5.45;;;8.40;99.90;;;;;;5050617;28;20511;-67
2022/01/17 09:09:48;;;;;;;35.95;5.53;;;8.50;99.90;;;;;;5044771;28;20041;-67
2022/01/17 09:12:15;;;;;;;27.10;4.68;;;8.50;99.90;;;;;;5046837;28;20159;-67
2022/01/17 09:14:41;;;;;;;35.15;6.00;;;8.50;99.90;;;;;;5047382;28;20049;-68
2022/01/17 09:17:08;;;;;;;44.38;5.95;;;8.60;99.90;;;;;;5059519;28;20056;-67
2022/01/17 09:19:40;;;;;;;33.95;5.93;;;8.70;99.90;;;;;;5067811;28;20086;-67
2022/01/17 09:22:07;;;;;;;37.20;5.40;;;8.70;99.90;;;;;;5065533;28;20131;-67
2022/01/17 09:24:37;;;;;;;33.25;5.35;;;8.80;99.90;;;;;;5066764;28;20070;-68
2022/01/17 09:27:05;;;;;;;32.35;6.05;;;8.90;99.90;;;;;;5066695;28;20337;-67
2022/01/17 09:29:31;;;;;;;35.78;5.68;;;9.00;99.90;;;;;;5038310;28;20045;-66
2022/01/17 09:31:57;;;;;;;33.42;5.50;;;9.00;99.90;;;;;;5025938;28;20453;-66
2022/01/17 09:34:23;;;;;;;36.40;5.72;;;9.00;99.90;;;;;;5024617;28;20049;-66
2022/01/17 09:36:48;;;;;;;41.10;6.28;;;9.10;99.90;;;;;;5026723;28;20050;-67
2022/01/17 09:39:15;;;;;;;27.80;5.53;;;9.10;99.90;;;;;;5026705;28;20099;-67
2022/01/17 09:41:41;;;;;;;33.38;4.70;;;9.20;99.90;;;;;;5029841;28;20511;-65
2022/01/17 09:44:09;;;;;;;32.40;6.13;;;9.10;99.90;;;;;;5028124;28;20096;-65
2022/01/17 09:46:41;;;;;;;32.83;5.63;;;9.20;99.90;;;;;;5025821;28;20053;-67
2022/01/17 09:54:21;;;;;;;34.63;5.80;;;9.40;99.90;;;;;;5026880;28;20103;-67
2022/01/17 09:56:50;;;;;;;21.90;4.75;;;9.60;99.90;;;;;;5026985;28;20049;-67
2022/01/17 09:59:16;;;;;;;34.88;5.75;;;9.80;99.90;;;;;;5056096;28;20386;-65
2022/01/17 10:01:43;;;;;;;42.42;5.60;;;9.90;99.90;;;;;;5015707;28;20045;-66
2022/01/17 10:04:09;;;;;;;38.67;6.35;;;10.10;99.90;;;;;;5030220;28;20462;-65
2022/01/17 10:06:40;;;;;;;37.20;5.70;;;10.20;99.90;;;;;;5031607;28;20124;-68
2022/01/17 10:09:21;;;;;;;38.70;5.72;;;10.20;99.90;;;;;;5031896;28;20087;-66
2022/01/17 10:12:13;;;;;;;45.55;6.95;;;10.10;99.90;;;;;;5030661;28;20053;-66
2022/01/17 10:14:41;;;;;;;33.45;5.70;;;9.90;99.90;;;;;;5029850;28;20346;-67
2022/01/17 10:17:08;;;;;;;38.03;6.22;;;9.90;99.90;;;;;;5032398;28;20099;-67
2022/01/17 10:19:34;;;;;;;38.58;6.53;;;9.90;99.90;;;;;;5028107;28;20037;-67
2022/01/17 10:22:02;;;;;;;43.92;5.80;;;9.90;99.90;;;;;;5030282;28;20039;-66
2022/01/17 10:24:43;;;;;;;34.60;6.57;;;10.70;99.90;;;;;;5030743;28;20048;-66
2022/01/17 10:35:23;;;;;;;32.70;6.00;;;10.70;99.90;;;;;;5030173;28;20049;-67
2022/01/17 10:38:05;;;;;;;40.40;6.25;;;10.80;99.90;;;;;;5030551;28;20286;-67
2022/01/17 10:40:41;;;;;;;41.38;7.10;;;10.70;99.90;;;;;;5030585;28;20041;-67
2022/01/17 10:43:18;;;;;;;41.38;6.60;;;10.60;99.90;;;;;;5029087;28;20041;-67
2022/01/17 10:45:44;;;;;;;33.40;6.15;;;10.50;99.90;;;;;;5028500;28;20099;-67
2022/01/17 10:48:10;;;;;;;38.03;7.38;;;10.80;99.90;;;;;;5029206;28;20421;-67
2022/01/17 10:50:50;;;;;;;30.92;5.03;;;10.90;99.90;;;;;;5044010;28;20044;-68
2022/01/17 10:53:17;;;;;;;41.95;5.97;;;10.90;99.90;;;;;;5043222;28;20080;-67
2022/01/17 10:55:48;;;;;;;40.78;6.78;;;10.70;99.90;;;;;;5042934;28;20056;-67
2022/01/17 10:58:24;;;;;;;40.60;7.38;;;10.70;99.90;;;;;;5068630;28;20072;-67
2022/01/17 11:00:55;;;;;;;31.13;5.72;;;11.00;99.90;;;;;;5070014;28;20056;-67
2022/01/17 11:03:25;;;;;;;46.55;7.18;;;11.70;99.90;;;;;;5067055;28;20044;-67
2022/01/17 11:05:53;;;;;;;33.50;6.15;;;12.60;99.90;;;;;;5069729;28;20088;-67
2022/01/17 11:08:22;;;;;;;44.13;7.20;;;12.80;99.90;;;;;;5069655;28;20049;-67
2022/01/17 11:10:52;;;;;;;42.72;8.23;;;12.50;99.90;;;;;;5061187;28;20068;-67
2022/01/17 11:13:19;;;;;;;41.25;6.88;;;12.20;99.90;;;;;;5057850;28;20048;-67
2022/01/17 11:15:49;;;;;;;36.78;7.47;;;11.90;99.90;;;;;;5070536;28;20049;-67
2022/01/17 11:18:22;;;;;;;32.38;6.35;;;11.60;99.90;;;;;;5054885;28;20127;-68
2022/01/17 11:20:54;;;;;;;39.97;7.07;;;11.50;99.90;;;;;;5050405;28;20048;-67
2022/01/17 11:23:24;;;;;;;39.50;7.88;;;11.50;99.90;;;;;;5056737;28;20044;-67
2022/01/17 11:25:55;;;;;;;40.08;6.88;;;11.40;99.90;;;;;;5066818;28;20041;-67
2022/01/17 11:28:26;;;;;;;46.72;7.32;;;11.30;99.90;;;;;;5054229;28;20041;-68
2022/01/17 11:30:54;;;;;;;40.97;6.65;;;11.40;99.90;;;;;;5029059;28;20045;-67
2022/01/17 11:33:20;;;;;;;41.63;7.28;;;11.40;99.90;;;;;;5045181;28;20049;-67
2022/01/17 11:35:51;;;;;;;47.03;6.68;;;11.30;99.90;;;;;;5051180;28;20067;-67
2022/01/17 11:38:26;;;;;;;44.78;8.63;;;11.20;99.90;;;;;;5061089;28;20090;-67
2022/01/17 11:40:52;;;;;;;46.85;10.00;;;11.00;99.90;;;;;;5036142;28;20390;-66
2022/01/17 11:43:22;;;;;;;43.47;6.53;;;10.90;99.90;;;;;;5047501;28;20041;-66
2022/01/17 11:45:52;;;;;;;43.00;7.38;;;10.90;99.90;;;;;;5046524;28;20037;-75
2022/01/17 11:48:23;;;;;;;51.78;8.18;;;10.60;99.90;;;;;;5068906;28;20057;-75
2022/01/17 11:50:52;;;;;;;49.42;8.55;;;10.50;99.90;;;;;;5064637;28;20056;-76
2022/01/17 11:53:18;;;;;;;40.78;7.70;;;10.60;99.90;;;;;;5063241;28;20033;-76
2022/01/17 11:55:49;;;;;;;41.88;7.50;;;10.40;99.90;;;;;;5063542;28;20065;-77
2022/01/17 11:58:25;;;;;;;50.78;7.82;;;10.30;99.90;;;;;;5062760;28;20088;-76
2022/01/17 12:00:59;;;;;;;47.45;7.45;;;10.30;99.90;;;;;;5064194;28;20055;-76
2022/01/17 12:03:28;;;;;;;34.60;6.95;;;10.20;99.90;;;;;;5047282;28;20044;-76
2022/01/17 12:05:55;;;;;;;42.72;7.50;;;10.30;99.90;;;;;;5064829;28;20040;-75
2022/01/17 12:08:26;;;;;;;44.38;8.50;;;10.30;99.90;;;;;;5062025;28;20044;-76
2022/01/17 12:11:03;;;;;;;48.28;8.00;;;10.40;99.90;;;;;;5064242;28;20045;-75
2022/01/17 12:13:40;;;;;;;48.10;7.97;;;10.50;99.90;;;;;;5064719;28;20127;-76
2022/01/17 12:16:31;;;;;;;45.13;7.60;;;10.60;99.90;;;;;;5062269;28;20132;-76
2022/01/17 12:18:56;;;;;;;40.55;7.05;;;10.50;99.90;;;;;;5049533;28;20055;-75
2022/01/17 12:21:32;;;;;;;46.63;8.15;;;10.50;99.90;;;;;;5044482;28;20041;-76
2022/01/17 12:24:16;;;;;;;33.33;6.68;;;10.50;99.90;;;;;;5045479;28;20105;-76
2022/01/17 12:27:06;;;;;;;38.92;6.28;;;10.50;99.90;;;;;;5053586;28;20408;-76
2022/01/17 12:29:42;;;;;;;32.72;6.38;;;10.40;99.90;;;;;;5043248;28;20046;-68
2022/01/17 12:32:26;;;;;;;41.70;7.55;;;10.30;99.90;;;;;;5028362;28;20598;-67
2022/01/17 12:34:54;;;;;;;33.78;6.35;;;10.20;99.90;;;;;;5062596;28;20120;-68
2022/01/17 12:37:34;;;;;;;44.20;7.40;;;10.20;99.90;;;;;;5043408;28;20132;-67
2022/01/17 12:40:11;;;;;;;40.63;7.30;;;10.10;99.90;;;;;;5029959;28;20053;-68
2022/01/17 12:43:04;;;;;;;42.70;6.82;;;10.20;99.90;;;;;;5026909;28;20075;-68
2022/01/17 12:45:33;;;;;;;39.50;6.82;;;10.10;99.90;;;;;;5027602;28;20041;-68
2022/01/17 12:48:02;;;;;;;45.88;6.95;;;10.10;99.90;;;;;;5058879;28;20044;-68
2022/01/17 12:50:32;;;;;;;42.53;7.30;;;10.00;99.90;;;;;;5064058;28;20049;-68
2022/01/17 12:53:00;;;;;;;46.50;7.93;;;10.10;99.90;;;;;;5050018;28;20127;-68
2022/01/17 12:55:33;;;;;;;49.50;8.60;;;10.00;99.90;;;;;;5066805;28;20062;-68
2022/01/17 12:57:59;;;;;;;51.55;6.93;;;10.00;99.90;;;;;;5054270;28;20496;-68
2022/01/17 13:00:27;;;;;;;47.22;8.43;;;10.10;99.90;;;;;;5047797;28;20080;-68
2022/01/17 13:02:54;;;;;;;40.55;7.13;;;10.20;99.90;;;;;;5046006;28;20417;-68
2022/01/17 13:05:23;;;;;;;48.67;8.40;;;10.40;99.90;;;;;;5025371;28;20096;-68
2022/01/17 13:07:49;;;;;;;43.55;8.13;;;10.50;99.90;;;;;;5038680;28;20152;-69
2022/01/17 13:10:15;;;;;;;37.58;7.07;;;10.50;99.90;;;;;;5049251;28;20072;-68
2022/01/17 13:12:42;;;;;;;43.65;8.02;;;12.10;99.90;;;;;;5047475;28;20371;-68
2022/01/17 13:15:10;;;;;;;40.78;7.45;;;11.50;99.90;;;;;;5031988;28;20055;-67
2022/01/17 13:17:36;;;;;;;36.72;6.78;;;11.30;99.90;;;;;;5028552;28;20127;-67
2022/01/17 13:20:04;;;;;;;37.60;7.75;;;11.10;99.90;;;;;;5066421;28;20041;-67
2022/01/17 13:22:37;;;;;;;42.83;7.25;;;10.90;99.90;;;;;;5032864;28;20048;-68